Pottersville, Vermont
Current Conditions -  °F | °C
As of 10:54 AM on Friday 24 Oct 2014 (Local Time) from KMVL Reporting Station
Overcast Overcast  
Wind Chill: 39°   Ceiling: 2100
Heat Index: 43°   Visibility: 10mi
Dew Point: 38°   Wind: 7mph
Humidity: 82%   Direction: 350°N
Pressure: 29.84"   Gusts: NA
Location:  44.5359°N, 72.4842°W
Report Text: KMVL 241454Z AUTO 35006KT 10SM OVC021 06/03 A2984 RMK AO2 SLP111 T00610033 50000
Loading
Personal Weather Stations






























Interactive Weather Map New forecast layout! Learn more

10-Day Weather Forecast

Advertisements
Track Severe Weather on mobile